ěÝzenÝ letovÚho provozu ╚eskÚ republiky
Letiste: LKPJ Aktualizace: 07.07.2020 14:01:25  UTC
 METAR LKPJ 07.07. 14:00 ...
METAR LKPJ 071400Z AUTO 35009KT 320V030 9999 FEW044 BKN057 BKN092 17/09 Q1019=